Time;durP1;ratioP1;P1;durP2;ratioP2;P2;SDS_P1;SDS_P2;PMS_P1;PMS_P2;Temp;Humidity;BMP_temperature;BMP_pressure;BME280_temperature;BME280_humidity;BME280_pressure;Samples;Min_cycle;Max_cycle;Signal;HPM_P1;HPM_P2
2022/05/14 00:02:11;;;;;;;5.05;2.50;;;18.70;94.10;;;;;;4757094;30;20044;-61
2022/05/14 00:04:38;;;;;;;2.78;1.95;;;18.70;94.00;;;;;;4750329;30;20090;-62
2022/05/14 00:07:06;;;;;;;2.88;2.10;;;18.60;94.00;;;;;;4752244;30;20051;-62
2022/05/14 00:09:33;;;;;;;2.65;2.17;;;18.60;94.10;;;;;;4733119;30;20050;-61
2022/05/14 00:14:45;;;;;;;2.95;1.63;;;18.70;94.00;;;;;;4757674;30;20051;-61
2022/05/14 00:17:12;;;;;;;4.28;1.90;;;18.60;94.10;;;;;;4752320;30;20164;-61
2022/05/14 00:19:39;;;;;;;3.90;2.15;;;18.60;94.30;;;;;;4752754;30;20044;-61
2022/05/14 00:22:07;;;;;;;6.70;2.40;;;18.60;94.60;;;;;;4752411;30;20058;-61
2022/05/14 00:24:34;;;;;;;4.43;2.28;;;18.60;94.70;;;;;;4748807;30;20059;-61
2022/05/14 00:27:01;;;;;;;3.38;2.60;;;18.60;94.80;;;;;;4752192;30;20523;-61
2022/05/14 00:29:29;;;;;;;8.57;3.03;;;18.60;94.80;;;;;;4726021;30;20496;-62
2022/05/14 00:31:56;;;;;;;4.93;2.33;;;18.60;95.10;;;;;;4740757;30;20194;-62
2022/05/14 00:34:23;;;;;;;3.25;1.98;;;18.50;95.10;;;;;;4751200;30;20148;-61
2022/05/14 00:36:50;;;;;;;4.15;2.40;;;18.50;95.30;;;;;;4734257;30;20079;-61
2022/05/14 00:39:17;;;;;;;4.05;2.42;;;18.50;95.40;;;;;;4754406;30;20054;-62
2022/05/14 00:41:48;;;;;;;3.25;2.22;;;18.50;95.30;;;;;;4720416;30;20055;-62
2022/05/14 00:44:15;;;;;;;4.25;1.77;;;18.50;95.20;;;;;;4758170;30;20783;-61
2022/05/14 00:46:55;;;;;;;5.28;2.20;;;18.50;95.40;;;;;;4755085;30;20039;-62
2022/05/14 00:49:23;;;;;;;3.28;2.08;;;18.50;95.50;;;;;;4759013;30;20054;-62
2022/05/14 00:51:51;;;;;;;3.03;1.90;;;18.50;95.50;;;;;;4741395;30;20338;-62
2022/05/14 00:54:25;;;;;;;3.63;2.15;;;18.40;95.60;;;;;;4724458;30;20063;-62
2022/05/14 00:56:57;;;;;;;3.70;2.47;;;18.40;95.60;;;;;;4726335;30;20070;-62
2022/05/14 00:59:26;;;;;;;3.65;2.53;;;18.40;95.70;;;;;;4757639;30;20135;-62
2022/05/14 01:01:55;;;;;;;3.70;2.20;;;18.40;95.80;;;;;;4732686;30;20055;-61
2022/05/14 01:04:23;;;;;;;4.70;2.08;;;18.40;95.80;;;;;;4739754;30;20874;-62
2022/05/14 01:06:56;;;;;;;4.07;2.33;;;18.40;95.60;;;;;;4753122;30;20514;-62
2022/05/14 01:09:24;;;;;;;4.88;2.90;;;18.40;95.60;;;;;;4725762;30;20201;-61
2022/05/14 01:11:54;;;;;;;4.88;2.50;;;18.40;95.60;;;;;;4741128;30;20330;-62
2022/05/14 01:14:22;;;;;;;4.15;2.22;;;18.30;95.70;;;;;;4725018;30;20079;-62
2022/05/14 01:16:53;;;;;;;3.25;2.28;;;18.30;95.70;;;;;;4720194;30;20060;-62
2022/05/14 01:19:23;;;;;;;4.03;2.88;;;18.30;95.70;;;;;;4715235;30;20057;-62
2022/05/14 01:22:02;;;;;;;2.80;2.22;;;18.30;95.60;;;;;;4714135;30;20045;-62
2022/05/14 01:27:17;;;;;;;4.60;2.95;;;18.30;95.50;;;;;;4727222;30;20071;-62
2022/05/14 01:29:46;;;;;;;3.17;2.35;;;18.20;95.80;;;;;;4726226;30;20056;-62
2022/05/14 01:32:15;;;;;;;5.47;2.58;;;18.20;96.00;;;;;;4727815;30;20406;-61
2022/05/14 01:34:44;;;;;;;5.32;2.58;;;18.10;96.20;;;;;;4712051;30;20052;-62
2022/05/14 01:37:14;;;;;;;4.97;2.47;;;18.20;96.20;;;;;;4718753;30;20308;-61
2022/05/14 01:39:44;;;;;;;6.20;3.17;;;18.20;96.20;;;;;;4717744;30;20313;-62
2022/05/14 01:42:12;;;;;;;4.20;2.38;;;18.20;96.10;;;;;;4713967;30;20055;-62
2022/05/14 01:44:40;;;;;;;4.65;2.85;;;18.20;96.20;;;;;;4716614;30;20059;-62
2022/05/14 01:47:08;;;;;;;5.80;2.63;;;18.20;96.20;;;;;;4712396;30;20052;-62
2022/05/14 01:49:35;;;;;;;5.18;2.75;;;18.10;96.20;;;;;;4713620;30;20514;-62
2022/05/14 01:52:03;;;;;;;5.05;2.15;;;18.10;96.30;;;;;;4712494;30;20806;-62
2022/05/14 01:54:30;;;;;;;5.00;3.47;;;18.10;96.40;;;;;;4731166;30;20055;-62
2022/05/14 01:56:59;;;;;;;6.68;3.05;;;18.10;96.50;;;;;;4726804;30;20045;-62
2022/05/14 01:59:26;;;;;;;4.93;2.65;;;18.00;96.90;;;;;;4711442;30;20045;-62
2022/05/14 02:01:54;;;;;;;5.28;2.92;;;18.00;97.20;;;;;;4705709;30;21262;-62
2022/05/14 02:04:21;;;;;;;4.10;2.75;;;18.00;96.90;;;;;;4716858;30;20049;-62
2022/05/14 02:06:48;;;;;;;5.72;2.90;;;18.00;97.40;;;;;;4731866;30;20049;-61
2022/05/14 02:09:15;;;;;;;3.83;2.78;;;18.00;97.60;;;;;;4713199;30;20057;-62
2022/05/14 02:11:48;;;;;;;5.97;2.97;;;18.00;97.50;;;;;;4714427;30;20083;-61
2022/05/14 02:14:25;;;;;;;8.00;2.80;;;18.00;97.50;;;;;;4715371;30;20062;-61
2022/05/14 02:16:52;;;;;;;3.92;2.72;;;18.10;97.40;;;;;;4738629;30;20060;-61
2022/05/14 02:19:20;;;;;;;4.97;3.20;;;18.00;97.80;;;;;;4736308;30;20049;-61
2022/05/14 02:21:47;;;;;;;5.28;2.90;;;18.00;98.20;;;;;;4738741;30;20044;-61
2022/05/14 02:24:15;;;;;;;4.88;2.92;;;18.00;98.20;;;;;;4738824;30;20922;-62
2022/05/14 02:26:43;;;;;;;5.43;3.15;;;18.00;98.20;;;;;;4744062;30;20573;-61
2022/05/14 02:29:10;;;;;;;6.10;3.20;;;17.90;98.70;;;;;;4739547;30;20043;-62
2022/05/14 02:31:37;;;;;;;4.32;2.83;;;17.90;98.80;;;;;;4753991;30;20056;-62
2022/05/14 02:34:04;;;;;;;5.60;3.17;;;17.90;99.00;;;;;;4737595;30;20583;-62
2022/05/14 02:36:32;;;;;;;6.15;3.88;;;17.80;99.30;;;;;;4730495;30;20135;-61
2022/05/14 02:38:59;;;;;;;7.85;4.03;;;17.80;99.50;;;;;;4748616;30;20052;-61
2022/05/14 02:41:26;;;;;;;6.93;2.92;;;17.70;99.20;;;;;;4735901;30;20075;-61
2022/05/14 02:43:53;;;;;;;7.93;3.72;;;17.70;99.30;;;;;;4738440;30;20136;-61
2022/05/14 02:46:21;;;;;;;5.88;3.90;;;17.60;99.50;;;;;;4721111;30;20041;-61
2022/05/14 02:48:49;;;;;;;6.00;3.50;;;17.60;99.60;;;;;;4749918;30;20080;-61
2022/05/14 02:51:16;;;;;;;7.13;3.67;;;17.50;99.90;;;;;;4748876;30;20045;-61
2022/05/14 02:53:44;;;;;;;9.30;4.32;;;17.50;99.90;;;;;;4739100;30;20439;-61
2022/05/14 02:56:11;;;;;;;5.68;4.35;;;17.50;99.90;;;;;;4722375;30;20040;-61
2022/05/14 03:01:23;;;;;;;8.13;4.22;;;17.40;99.90;;;;;;4733643;30;20070;-62
2022/05/14 03:03:51;;;;;;;6.22;4.35;;;17.40;99.90;;;;;;4753681;30;20060;-61
2022/05/14 03:06:18;;;;;;;9.40;4.00;;;17.40;99.90;;;;;;4735879;30;20052;-61
2022/05/14 03:08:45;;;;;;;5.22;3.80;;;17.40;99.90;;;;;;4746490;30;20056;-61
2022/05/14 03:11:12;;;;;;;10.73;4.82;;;17.40;99.90;;;;;;4735806;30;20390;-61
2022/05/14 03:13:39;;;;;;;6.93;3.88;;;17.40;99.90;;;;;;4735877;30;20044;-61
2022/05/14 03:16:06;;;;;;;6.45;4.07;;;17.40;99.90;;;;;;4750919;30;20753;-61
2022/05/14 03:18:34;;;;;;;7.38;3.70;;;17.40;99.90;;;;;;4742938;30;20040;-61
2022/05/14 03:21:02;;;;;;;7.55;4.05;;;17.40;99.90;;;;;;4736514;30;20052;-61
2022/05/14 03:23:30;;;;;;;7.28;4.10;;;17.40;99.90;;;;;;4734212;30;20075;-61
2022/05/14 03:25:57;;;;;;;5.40;4.15;;;17.30;99.90;;;;;;4721983;30;20071;-61
2022/05/14 03:28:24;;;;;;;7.78;4.18;;;17.30;99.90;;;;;;4734891;30;20146;-61
2022/05/14 03:30:51;;;;;;;9.77;4.18;;;17.30;99.90;;;;;;4735975;30;20137;-61
2022/05/14 03:33:18;;;;;;;8.02;4.30;;;17.30;99.90;;;;;;4737611;30;20048;-61
2022/05/14 03:35:45;;;;;;;7.28;4.25;;;17.30;99.90;;;;;;4734364;30;20087;-61
2022/05/14 03:38:13;;;;;;;8.20;4.22;;;17.40;99.90;;;;;;4744414;30;20235;-61
2022/05/14 03:40:40;;;;;;;8.00;3.75;;;17.40;99.90;;;;;;4734001;30;20060;-61
2022/05/14 03:43:07;;;;;;;6.35;4.07;;;17.40;99.90;;;;;;4749830;30;20384;-61
2022/05/14 03:45:35;;;;;;;8.45;4.15;;;17.50;99.90;;;;;;4750935;30;20605;-61
2022/05/14 03:48:02;;;;;;;7.50;4.00;;;17.50;99.90;;;;;;4749727;30;20075;-61
2022/05/14 03:50:30;;;;;;;8.15;4.43;;;17.50;99.90;;;;;;4734242;30;20052;-62
2022/05/14 03:52:57;;;;;;;8.77;4.57;;;17.50;99.90;;;;;;4729757;30;20060;-62
2022/05/14 03:55:26;;;;;;;7.50;3.92;;;17.50;99.90;;;;;;4738791;30;20052;-61
2022/05/14 03:57:53;;;;;;;7.40;3.65;;;17.50;99.90;;;;;;4737328;30;20167;-61
2022/05/14 04:00:21;;;;;;;7.32;4.10;;;17.50;99.90;;;;;;4732950;30;20048;-62
2022/05/14 04:02:49;;;;;;;8.38;4.03;;;17.50;99.90;;;;;;4732323;30;20043;-61
2022/05/14 04:05:16;;;;;;;7.32;5.10;;;17.50;99.90;;;;;;4738161;30;20047;-61
2022/05/14 04:07:45;;;;;;;6.70;4.30;;;17.50;99.90;;;;;;4731774;30;20504;-61
2022/05/14 04:10:12;;;;;;;8.43;4.15;;;17.50;99.90;;;;;;4748471;30;20125;-62
2022/05/14 04:12:40;;;;;;;7.72;4.05;;;17.50;99.90;;;;;;4735517;30;20098;-61
2022/05/14 04:15:09;;;;;;;8.00;4.50;;;17.50;99.90;;;;;;4741775;30;20063;-62
2022/05/14 04:17:37;;;;;;;9.57;4.40;;;17.60;99.90;;;;;;4740383;30;20132;-61
2022/05/14 04:20:05;;;;;;;6.47;4.40;;;17.60;99.90;;;;;;4742965;30;20048;-62
2022/05/14 04:22:33;;;;;;;7.05;4.93;;;17.60;99.90;;;;;;4741589;30;20046;-62
2022/05/14 04:25:00;;;;;;;8.00;4.50;;;17.60;99.90;;;;;;4754435;30;20047;-61
2022/05/14 04:27:28;;;;;;;7.15;4.60;;;17.70;99.90;;;;;;4741386;30;20662;-62
2022/05/14 04:29:55;;;;;;;7.65;5.00;;;17.70;99.90;;;;;;4739722;30;20056;-62
2022/05/14 04:32:22;;;;;;;7.10;4.53;;;17.80;99.90;;;;;;4750998;30;20043;-61
2022/05/14 04:34:49;;;;;;;8.27;4.82;;;17.80;99.90;;;;;;4739245;30;20655;-62
2022/05/14 04:37:16;;;;;;;8.63;4.47;;;17.90;99.90;;;;;;4754819;30;20844;-61
2022/05/14 04:39:44;;;;;;;6.82;4.60;;;18.00;99.90;;;;;;4739779;30;20062;-61
2022/05/14 04:42:13;;;;;;;7.60;4.45;;;18.00;99.90;;;;;;4733797;30;20052;-62
2022/05/14 04:44:40;;;;;;;7.47;4.15;;;18.10;99.90;;;;;;4753975;30;20119;-62
2022/05/14 04:47:09;;;;;;;7.55;4.13;;;18.10;99.90;;;;;;4744838;30;20035;-62
2022/05/14 04:49:44;;;;;;;8.07;4.85;;;18.20;99.60;;;;;;4757025;30;20048;-62
2022/05/14 04:52:11;;;;;;;8.10;4.38;;;18.30;99.40;;;;;;4742404;30;20070;-62
2022/05/14 04:54:39;;;;;;;8.18;4.18;;;18.40;99.10;;;;;;4743018;30;20067;-62
2022/05/14 04:57:07;;;;;;;7.35;3.60;;;18.50;98.90;;;;;;4757204;30;20174;-61
2022/05/14 04:59:38;;;;;;;10.60;4.00;;;18.50;98.20;;;;;;4754797;30;20044;-62
2022/05/14 05:04:54;;;;;;;7.25;4.57;;;18.60;98.20;;;;;;4717228;30;20109;-62
2022/05/14 05:07:23;;;;;;;8.38;4.40;;;18.70;98.00;;;;;;4708499;30;20868;-62
2022/05/14 05:09:51;;;;;;;8.20;4.30;;;18.80;97.50;;;;;;4718271;30;20776;-62
2022/05/14 05:12:18;;;;;;;8.77;4.25;;;18.90;97.20;;;;;;4711368;30;20055;-62
2022/05/14 05:14:45;;;;;;;9.68;4.55;;;19.00;96.00;;;;;;4716598;30;20055;-62
2022/05/14 05:17:20;;;;;;;10.68;4.88;;;19.10;95.20;;;;;;4712465;30;20881;-63
2022/05/14 05:19:47;;;;;;;6.80;4.22;;;19.20;96.10;;;;;;4706150;30;20055;-63
2022/05/14 05:22:14;;;;;;;7.47;4.10;;;19.30;94.70;;;;;;4720695;29;20056;-62
2022/05/14 05:24:41;;;;;;;5.07;3.40;;;19.50;93.70;;;;;;4710089;30;20055;-62
2022/05/14 05:27:08;;;;;;;5.13;3.53;;;19.60;93.10;;;;;;4695456;30;20093;-62
2022/05/14 05:29:35;;;;;;;8.43;3.65;;;19.70;92.60;;;;;;4712631;30;20059;-62
2022/05/14 05:32:03;;;;;;;6.85;3.60;;;19.70;91.50;;;;;;4709459;30;20043;-62
2022/05/14 05:34:30;;;;;;;10.23;4.07;;;19.80;90.90;;;;;;4720458;30;20056;-62
2022/05/14 05:36:57;;;;;;;4.63;2.90;;;19.80;91.30;;;;;;4700816;30;20066;-62
2022/05/14 05:39:24;;;;;;;6.03;3.33;;;20.00;90.80;;;;;;4724695;30;20051;-62
2022/05/14 05:41:51;;;;;;;5.95;3.40;;;20.20;90.20;;;;;;4727006;30;20054;-62
2022/05/14 05:44:18;;;;;;;6.82;3.10;;;20.30;88.30;;;;;;4718101;30;20044;-62
2022/05/14 05:46:46;;;;;;;8.40;3.97;;;20.40;87.60;;;;;;4703090;30;20101;-63
2022/05/14 05:49:13;;;;;;;6.70;3.47;;;20.50;87.30;;;;;;4717922;30;20079;-62
2022/05/14 05:51:40;;;;;;;7.18;3.47;;;20.60;84.30;;;;;;4718863;30;22581;-63
2022/05/14 05:57:00;;;;;;;7.55;3.15;;;20.90;84.50;;;;;;4700409;30;20071;-62
2022/05/14 05:59:30;;;;;;;5.32;2.88;;;20.90;79.30;;;;;;4714118;30;20059;-62
2022/05/14 06:01:57;;;;;;;7.32;2.80;;;20.90;77.90;;;;;;4718259;30;20047;-62
2022/05/14 06:04:24;;;;;;;3.78;3.00;;;20.90;78.70;;;;;;4699251;30;20555;-62
2022/05/14 06:06:52;;;;;;;5.57;2.47;;;21.10;78.10;;;;;;4706113;30;20727;-63
2022/05/14 06:09:22;;;;;;;5.15;2.50;;;21.10;76.10;;;;;;4722538;30;20058;-63
2022/05/14 06:11:50;;;;;;;5.80;3.03;;;21.20;75.30;;;;;;4721451;30;22592;-63
2022/05/14 06:14:17;;;;;;;3.42;2.60;;;21.20;75.50;;;;;;4719491;30;20052;-63
2022/05/14 06:16:44;;;;;;;3.92;2.20;;;21.40;74.90;;;;;;4721167;30;20162;-63
2022/05/14 06:19:12;;;;;;;4.80;2.10;;;21.60;73.20;;;;;;4722144;30;22604;-63
2022/05/14 06:21:40;;;;;;;6.18;2.70;;;21.60;71.50;;;;;;4724548;30;20055;-63
2022/05/14 06:24:09;;;;;;;3.80;1.80;;;21.70;71.70;;;;;;4725987;30;20047;-62
2022/05/14 06:26:37;;;;;;;4.05;1.35;;;21.80;69.30;;;;;;4698482;30;20881;-62
2022/05/14 06:29:07;;;;;;;3.10;1.35;;;21.80;68.10;;;;;;4724427;30;20880;-62
2022/05/14 06:31:35;;;;;;;2.67;1.33;;;21.90;66.60;;;;;;4723643;30;20534;-63
2022/05/14 06:34:03;;;;;;;5.60;1.42;;;22.10;67.60;;;;;;4720254;30;20059;-63
2022/05/14 06:36:30;;;;;;;4.43;1.45;;;22.20;64.80;;;;;;4722999;30;20094;-63
2022/05/14 06:38:58;;;;;;;1.80;0.90;;;22.30;63.90;;;;;;4720973;30;20062;-63
2022/05/14 06:41:25;;;;;;;3.75;1.00;;;22.20;61.60;;;;;;4720519;30;20196;-62
2022/05/14 06:43:52;;;;;;;3.33;0.80;;;22.30;60.10;;;;;;4727195;30;20054;-63
2022/05/14 06:46:19;;;;;;;2.38;0.90;;;22.40;59.10;;;;;;4698475;30;20244;-63
2022/05/14 06:48:46;;;;;;;5.68;1.00;;;22.30;57.50;;;;;;4707212;30;20305;-63
2022/05/14 06:51:23;;;;;;;3.10;0.95;;;22.40;57.30;;;;;;4719985;30;20055;-64
2022/05/14 06:53:54;;;;;;;4.72;0.57;;;22.40;57.60;;;;;;4701174;30;20058;-65
2022/05/14 06:56:22;;;;;;;2.95;1.02;;;22.40;55.90;;;;;;4719351;30;22399;-65
2022/05/14 06:58:50;;;;;;;2.53;0.77;;;22.50;56.90;;;;;;4721893;30;20727;-65
2022/05/14 07:01:19;;;;;;;4.18;0.73;;;22.60;58.50;;;;;;4718971;30;20056;-66
2022/05/14 07:06:39;;;;;;;4.70;0.73;;;22.80;54.80;;;;;;4719142;30;21002;-65
2022/05/14 07:09:10;;;;;;;5.35;1.08;;;22.70;52.20;;;;;;4716710;30;20044;-65
2022/05/14 07:11:39;;;;;;;3.08;0.40;;;22.70;52.50;;;;;;4703536;30;20064;-65
2022/05/14 07:14:08;;;;;;;2.65;0.50;;;22.70;50.60;;;;;;4715512;30;20701;-65
2022/05/14 07:16:35;;;;;;;2.75;0.75;;;22.60;50.10;;;;;;4715237;30;20051;-65
2022/05/14 07:19:06;;;;;;;6.50;0.40;;;22.70;50.70;;;;;;4720991;30;20099;-65
2022/05/14 07:21:36;;;;;;;4.03;0.50;;;22.70;50.20;;;;;;4721755;30;20111;-65
2022/05/14 07:24:08;;;;;;;4.15;0.50;;;22.70;50.50;;;;;;4719785;30;20205;-66
2022/05/14 07:26:37;;;;;;;4.43;0.52;;;22.90;51.40;;;;;;4720464;30;20693;-65
2022/05/14 07:29:07;;;;;;;2.67;0.50;;;22.80;49.90;;;;;;4719136;30;20059;-65
2022/05/14 07:31:35;;;;;;;4.82;0.95;;;22.80;49.20;;;;;;4691052;30;20063;-64
2022/05/14 07:34:03;;;;;;;3.95;0.40;;;22.70;49.70;;;;;;4696897;30;20052;-65
2022/05/14 07:36:35;;;;;;;7.03;1.23;;;22.80;51.10;;;;;;4720344;30;20065;-65
2022/05/14 07:39:07;;;;;;;9.43;0.85;;;23.10;52.10;;;;;;4721329;30;20100;-66
2022/05/14 07:41:37;;;;;;;2.40;0.47;;;23.30;54.20;;;;;;4721164;30;20051;-65
2022/05/14 07:44:07;;;;;;;3.58;0.73;;;23.40;54.90;;;;;;4718590;30;20166;-66
2022/05/14 07:46:36;;;;;;;4.60;0.90;;;23.40;55.90;;;;;;4717420;30;20783;-65
2022/05/14 07:49:12;;;;;;;4.20;1.02;;;23.30;54.10;;;;;;4696486;30;20048;-65
2022/05/14 07:51:40;;;;;;;4.55;0.90;;;23.00;52.30;;;;;;4721865;30;20703;-65
2022/05/14 07:54:07;;;;;;;6.03;0.82;;;23.10;53.00;;;;;;4703748;30;20523;-65
2022/05/14 07:56:34;;;;;;;6.07;1.02;;;23.10;52.70;;;;;;4720941;29;20056;-65
2022/05/14 07:59:03;;;;;;;4.88;0.70;;;23.20;53.70;;;;;;4682975;30;20063;-65
2022/05/14 08:01:30;;;;;;;4.07;0.57;;;23.30;50.00;;;;;;4714393;30;20185;-65
2022/05/14 08:03:57;;;;;;;3.45;0.40;;;23.00;48.00;;;;;;4715509;30;20169;-65
2022/05/14 08:06:25;;;;;;;4.38;0.80;;;22.90;47.60;;;;;;4700623;30;20516;-65
2022/05/14 08:08:53;;;;;;;5.32;1.02;;;22.90;48.60;;;;;;4693602;30;20142;-65
2022/05/14 08:11:21;;;;;;;3.75;0.77;;;23.00;48.50;;;;;;4706644;30;20188;-65
2022/05/14 08:13:48;;;;;;;2.17;1.10;;;23.00;48.30;;;;;;4705539;30;20085;-65
2022/05/14 08:16:16;;;;;;;2.10;0.70;;;23.00;49.10;;;;;;4719812;30;20068;-68
2022/05/14 08:18:43;;;;;;;4.95;0.75;;;22.90;48.70;;;;;;4719913;30;20064;-67
2022/05/14 08:26:41;;;;;;;4.53;1.40;;;23.00;50.30;;;;;;4720356;30;20055;-68
2022/05/14 08:29:09;;;;;;;9.20;0.88;;;23.20;50.90;;;;;;4716488;30;20043;-68
2022/05/14 08:31:36;;;;;;;1.92;0.65;;;23.10;49.50;;;;;;4716760;30;20063;-68
2022/05/14 08:34:03;;;;;;;6.68;0.77;;;22.90;48.50;;;;;;4710351;30;20150;-65
2022/05/14 08:36:30;;;;;;;3.38;0.65;;;22.90;48.80;;;;;;4720275;30;20051;-65
2022/05/14 08:38:58;;;;;;;6.38;0.75;;;23.10;50.40;;;;;;4696800;30;20110;-65
2022/05/14 08:41:25;;;;;;;3.25;0.85;;;23.20;49.10;;;;;;4723483;30;22392;-65
2022/05/14 08:43:58;;;;;;;4.50;1.42;;;23.10;48.90;;;;;;4722426;30;20231;-65
2022/05/14 08:46:26;;;;;;;3.22;0.90;;;23.20;50.30;;;;;;4702720;30;20068;-66
2022/05/14 08:48:56;;;;;;;4.85;0.70;;;23.10;48.30;;;;;;4717631;30;20121;-65
2022/05/14 08:51:30;;;;;;;3.72;0.93;;;23.20;50.00;;;;;;4718729;30;20055;-65
2022/05/14 08:53:57;;;;;;;5.00;0.93;;;23.30;49.90;;;;;;4720828;30;20120;-65
2022/05/14 08:56:41;;;;;;;3.95;0.75;;;23.40;49.90;;;;;;4717691;29;20063;-65
2022/05/14 09:00:05;;;;;;;4.95;1.13;;;23.20;49.40;;;;;;4724143;30;20161;-65
2022/05/14 09:02:41;;;;;;;4.00;1.00;;;23.20;49.40;;;;;;4674159;30;20087;-65
2022/05/14 09:05:17;;;;;;;7.60;1.77;;;23.20;50.20;;;;;;4724652;30;20062;-65
2022/05/14 09:07:45;;;;;;;5.05;0.82;;;23.20;49.40;;;;;;4717301;30;20103;-64
2022/05/14 09:10:36;;;;;;;4.97;0.88;;;23.00;50.30;;;;;;4727316;30;20095;-65
2022/05/14 09:13:14;;;;;;;4.97;1.45;;;23.10;48.70;;;;;;4708752;30;20056;-65
2022/05/14 09:16:05;;;;;;;4.77;1.10;;;23.20;50.50;;;;;;4696852;30;22069;-64
2022/05/14 09:18:41;;;;;;;6.18;0.68;;;23.40;48.80;;;;;;4703339;30;20324;-65
2022/05/14 09:21:22;;;;;;;2.35;0.80;;;23.50;47.90;;;;;;4722138;30;20059;-65
2022/05/14 09:24:03;;;;;;;5.97;0.80;;;23.40;47.50;;;;;;4706091;30;20059;-65
2022/05/14 09:26:37;;;;;;;5.30;1.05;;;23.20;47.80;;;;;;4707528;30;20064;-65
2022/05/14 09:29:34;;;;;;;5.32;1.52;;;23.20;47.40;;;;;;4707243;30;22120;-66
2022/05/14 09:32:05;;;;;;;2.90;0.82;;;23.30;47.70;;;;;;4704853;30;20063;-66
2022/05/14 09:34:34;;;;;;;1.70;0.55;;;23.20;47.90;;;;;;4706213;30;20805;-65
2022/05/14 09:37:20;;;;;;;4.68;0.77;;;23.30;48.20;;;;;;4702605;30;22946;-64
2022/05/14 09:40:04;;;;;;;3.58;0.98;;;23.40;47.60;;;;;;4702604;30;20063;-66
2022/05/14 09:43:15;;;;;;;3.97;0.70;;;23.40;50.80;;;;;;4704463;30;20087;-65
2022/05/14 09:46:04;;;;;;;5.30;1.10;;;23.40;48.50;;;;;;4696076;30;20738;-65
2022/05/14 09:48:36;;;;;;;2.20;0.65;;;23.20;47.40;;;;;;4715903;30;20189;-65
2022/05/14 09:51:08;;;;;;;3.45;0.68;;;23.30;48.40;;;;;;4704705;30;20052;-65
2022/05/14 09:53:43;;;;;;;3.20;0.90;;;23.40;49.70;;;;;;4706377;30;20062;-65
2022/05/14 09:56:10;;;;;;;2.28;0.75;;;23.40;50.00;;;;;;4705244;30;20077;-65
2022/05/14 09:58:50;;;;;;;5.03;1.02;;;23.60;50.60;;;;;;4703268;30;20166;-65
2022/05/14 10:01:46;;;;;;;3.95;0.90;;;23.50;47.70;;;;;;4706286;30;20091;-66
2022/05/14 10:04:43;;;;;;;4.28;1.00;;;23.40;48.30;;;;;;4717164;30;20065;-66
2022/05/14 10:07:28;;;;;;;3.05;0.70;;;23.40;49.90;;;;;;4701324;30;22498;-66
2022/05/14 10:10:06;;;;;;;2.13;0.93;;;23.60;48.40;;;;;;4706764;30;20055;-65
2022/05/14 10:12:47;;;;;;;5.85;1.23;;;23.60;50.10;;;;;;4707322;30;20234;-64
2022/05/14 10:15:33;;;;;;;1.73;0.77;;;23.60;51.10;;;;;;4707298;30;20063;-65
2022/05/14 10:18:06;;;;;;;2.33;0.85;;;23.50;49.80;;;;;;4701748;30;20209;-64
2022/05/14 10:21:02;;;;;;;4.65;1.13;;;23.50;50.90;;;;;;4721359;30;20823;-64
2022/05/14 10:26:51;;;;;;;2.95;1.15;;;23.40;50.30;;;;;;4671153;30;21068;-65
2022/05/14 10:29:36;;;;;;;4.38;1.20;;;23.40;50.00;;;;;;4666524;30;21098;-64
2022/05/14 10:32:30;;;;;;;3.65;1.48;;;23.50;51.80;;;;;;4664117;30;20172;-65
2022/05/14 10:35:11;;;;;;;5.90;1.38;;;23.40;50.80;;;;;;4667207;30;20211;-64
2022/05/14 10:37:38;;;;;;;4.10;1.25;;;23.40;51.70;;;;;;4669766;30;20064;-64
2022/05/14 10:40:29;;;;;;;5.95;1.20;;;23.30;50.70;;;;;;4667047;30;20489;-65
2022/05/14 10:43:31;;;;;;;6.68;1.10;;;23.20;50.50;;;;;;4670653;30;20061;-65
2022/05/14 10:45:59;;;;;;;3.15;0.93;;;23.50;51.40;;;;;;4634643;30;20059;-65
2022/05/14 10:48:37;;;;;;;2.35;0.70;;;23.50;47.70;;;;;;4665660;30;20065;-65
2022/05/14 10:51:12;;;;;;;4.78;1.30;;;23.50;47.80;;;;;;4661948;30;20049;-64
2022/05/14 10:53:42;;;;;;;4.30;1.17;;;23.30;47.00;;;;;;4672013;30;20092;-64
2022/05/14 10:56:33;;;;;;;6.03;1.33;;;23.30;48.10;;;;;;4719644;30;20929;-64
2022/05/14 10:59:06;;;;;;;6.53;1.30;;;23.50;49.60;;;;;;4713832;30;20194;-66
2022/05/14 11:01:59;;;;;;;4.05;1.20;;;23.50;50.90;;;;;;4692817;30;20055;-65
2022/05/14 11:04:42;;;;;;;3.80;1.75;;;23.40;50.60;;;;;;4716446;30;20183;-64
2022/05/14 11:07:14;;;;;;;4.32;1.40;;;23.60;48.70;;;;;;4695875;30;20051;-64
2022/05/14 11:09:43;;;;;;;4.40;1.65;;;23.60;50.90;;;;;;4710062;30;20134;-64
2022/05/14 11:12:19;;;;;;;5.30;1.40;;;23.60;51.00;;;;;;4709875;30;20059;-64
2022/05/14 11:14:49;;;;;;;6.80;1.45;;;23.50;51.10;;;;;;4715114;30;20067;-65
2022/05/14 11:17:39;;;;;;;3.60;1.60;;;23.60;49.10;;;;;;4715813;30;20159;-65
2022/05/14 11:20:09;;;;;;;2.75;1.33;;;23.60;50.30;;;;;;4686697;30;20059;-64
2022/05/14 11:22:50;;;;;;;5.33;1.20;;;23.60;50.20;;;;;;4713186;30;20051;-64
2022/05/14 11:25:25;;;;;;;3.47;1.10;;;23.60;50.10;;;;;;4714013;30;20100;-64
2022/05/14 11:28:05;;;;;;;2.65;1.25;;;23.70;51.30;;;;;;4694331;30;20089;-64
2022/05/14 11:30:42;;;;;;;4.28;1.35;;;23.70;48.60;;;;;;4713792;30;22130;-64
2022/05/14 11:33:27;;;;;;;4.20;1.03;;;23.60;49.20;;;;;;4711186;30;20106;-64
2022/05/14 11:36:10;;;;;;;15.10;1.50;;;23.80;50.50;;;;;;4714558;30;20062;-64
2022/05/14 11:38:43;;;;;;;2.15;1.15;;;23.80;48.10;;;;;;4712681;30;20183;-64
2022/05/14 11:41:25;;;;;;;2.17;0.80;;;23.60;47.20;;;;;;4712138;30;20055;-64
2022/05/14 11:43:53;;;;;;;2.70;0.80;;;23.60;46.70;;;;;;4711965;30;20060;-64
2022/05/14 11:46:25;;;;;;;3.22;1.15;;;23.80;48.60;;;;;;4716974;30;20056;-64
2022/05/14 11:49:02;;;;;;;4.57;1.42;;;23.80;48.10;;;;;;4716792;30;20170;-65
2022/05/14 11:51:52;;;;;;;7.88;1.23;;;23.70;49.30;;;;;;4713300;30;21109;-65
2022/05/14 11:54:47;;;;;;;5.35;1.25;;;23.50;48.90;;;;;;4709253;30;20067;-64
2022/05/14 11:57:24;;;;;;;4.93;0.82;;;23.50;49.00;;;;;;4689755;30;21064;-64
2022/05/14 12:00:19;;;;;;;4.07;1.73;;;23.70;49.50;;;;;;4711037;30;20062;-65
2022/05/14 12:03:08;;;;;;;3.22;0.93;;;23.80;48.90;;;;;;4665140;30;20067;-64
2022/05/14 12:05:37;;;;;;;3.55;1.30;;;23.70;44.60;;;;;;4714543;30;20066;-64
2022/05/14 12:08:23;;;;;;;4.32;0.90;;;23.70;46.20;;;;;;4695672;30;20094;-64
2022/05/14 12:11:32;;;;;;;5.60;1.52;;;23.80;46.90;;;;;;4711070;30;20055;-65
2022/05/14 12:14:02;;;;;;;3.65;0.80;;;23.80;47.70;;;;;;4712142;30;20062;-63
2022/05/14 12:16:35;;;;;;;4.40;1.27;;;23.90;48.60;;;;;;4715927;30;20067;-64
2022/05/14 12:19:07;;;;;;;3.80;0.98;;;23.80;46.30;;;;;;4715238;30;20060;-64
2022/05/14 12:21:35;;;;;;;6.65;0.90;;;23.90;47.30;;;;;;4715839;30;20889;-64
2022/05/14 12:24:02;;;;;;;7.50;1.05;;;24.00;46.20;;;;;;4708314;30;20062;-64
2022/05/14 12:26:36;;;;;;;3.50;0.88;;;24.00;46.50;;;;;;4708848;30;20066;-64
2022/05/14 12:29:21;;;;;;;2.85;0.75;;;24.00;42.70;;;;;;4711218;30;20048;-64
2022/05/14 12:34:47;;;;;;;6.80;1.45;;;23.80;43.90;;;;;;4718619;30;20121;-64
2022/05/14 12:37:27;;;;;;;2.53;0.80;;;23.80;43.20;;;;;;4698709;30;20070;-64
2022/05/14 12:39:58;;;;;;;1.52;0.73;;;23.80;45.00;;;;;;4698154;30;20063;-64
2022/05/14 12:42:36;;;;;;;2.13;0.70;;;23.90;45.80;;;;;;4715255;30;20793;-64
2022/05/14 12:45:06;;;;;;;4.40;2.05;;;23.80;45.60;;;;;;4696445;30;20056;-64
2022/05/14 12:47:34;;;;;;;6.90;1.67;;;23.90;45.40;;;;;;4717202;29;20256;-64
2022/05/14 12:50:02;;;;;;;2.97;1.92;;;24.10;45.60;;;;;;4720423;30;22496;-64
2022/05/14 12:52:32;;;;;;;4.90;0.88;;;24.00;44.90;;;;;;4716081;30;20067;-64
2022/05/14 12:55:05;;;;;;;1.75;0.60;;;23.90;44.80;;;;;;4719164;30;20055;-63
2022/05/14 12:57:35;;;;;;;;;;;24.10;45.40;;;;;;4702875;30;20062;-65
2022/05/14 13:00:03;;;;;;;8.57;2.05;;;24.10;44.50;;;;;;4721405;30;19969;-63
2022/05/14 13:02:47;;;;;;;5.15;1.00;;;24.20;45.60;;;;;;4716986;30;20044;-63
2022/05/14 13:05:50;;;;;;;3.22;1.10;;;24.10;44.30;;;;;;4716684;30;20144;-65
2022/05/14 13:08:22;;;;;;;4.22;1.10;;;24.10;44.90;;;;;;4685134;30;20094;-64
2022/05/14 13:10:55;;;;;;;4.17;0.60;;;24.10;44.30;;;;;;4715866;30;20055;-64
2022/05/14 13:13:35;;;;;;;2.92;1.00;;;24.30;41.80;;;;;;4713643;30;21356;-64
2022/05/14 13:16:24;;;;;;;4.65;1.33;;;24.30;43.70;;;;;;4720527;30;20256;-65
2022/05/14 13:19:13;;;;;;;10.43;1.50;;;24.10;44.10;;;;;;4719790;30;20063;-64
2022/05/14 13:22:01;;;;;;;1.42;0.70;;;24.00;45.10;;;;;;4725273;30;20757;-64
2022/05/14 13:24:31;;;;;;;6.20;2.03;;;24.00;44.90;;;;;;4712809;30;20067;-64
2022/05/14 13:27:02;;;;;;;3.08;1.17;;;24.10;45.10;;;;;;4708190;30;20056;-65
2022/05/14 13:29:33;;;;;;;5.22;0.90;;;24.20;45.80;;;;;;4719277;30;20147;-65
2022/05/14 13:32:11;;;;;;;7.22;1.33;;;24.20;45.30;;;;;;4712558;30;20716;-65
2022/05/14 13:37:53;;;;;;;4.20;1.08;;;24.20;45.30;;;;;;4732640;30;20056;-94
2022/05/14 13:40:30;;;;;;;3.05;0.52;;;24.20;46.00;;;;;;4730430;30;20433;-94
2022/05/14 13:43:08;;;;;;;7.90;1.63;;;24.30;45.20;;;;;;4732152;30;20071;-94
2022/05/14 13:45:51;;;;;;;3.17;0.70;;;24.20;43.10;;;;;;4724971;30;20056;-95